EGSS/STN METAR and TAF weather

Enter ICAO airport designator
Station Type Date Time Source
EGSS METAR 2018/10/16 14:20 UTC NOAA

EGSS 161420Z AUTO 19013KT 9999 SCT030 20/14 Q1015


Station Type Date Time Source
EGSS Decoded METAR 2018/10/16 14:20 UTC NOAA

Stansted Airport, United Kingdom (EGSS) 51-53N 000-14E 0M
Oct 16, 2018 - 10:20 AM EDT / 2018.10.16 1420 UTC
Wind: from the S (190 degrees) at 15 MPH (13 KT):0
Visibility: greater than 7 mile(s):0
Sky conditions: partly cloudy
Temperature: 68 F (20 C)
Dew Point: 57 F (14 C)
Relative Humidity: 68%
Pressure (altimeter): 29.97 in. Hg (1015 hPa)
ob: EGSS 161420Z AUTO 19013KT 9999 SCT030 20/14 Q1015
cycle: 14

Station Type Date Time Source
EGSS TAF 2018/10/16 12:09 UTC NOAA

TAF EGSS 161104Z 1612/1718 20010KT 8000 FEW030
BECMG 1612/1614 9999
BECMG 1702/1705 VRB03KT 7000 PROB40 1705/1708 3000 BR BKN005
TEMPO 1708/1711 BKN010 PROB40
TEMPO 1710/1718 3000 RADZ BKN004


Example: see airport list